sensor_id;sensor_type;location;lat;lon;timestamp;pressure;altitude;pressure_sealevel;temperature
74485;BMP280;62942;52.462;10.846;2023-07-13T00:01:02;100550;;;
74485;BMP280;62942;52.462;10.846;2023-07-13T00:02:02;100550;;;
74485;BMP280;62942;52.462;10.846;2023-07-13T00:03:12;100540;;;
74485;BMP280;62942;52.462;10.846;2023-07-13T00:04:23;100540;;;
74485;BMP280;62942;52.462;10.846;2023-07-13T00:05:22;100550;;;
74485;BMP280;62942;52.462;10.846;2023-07-13T00:06:22;100560;;;
74485;BMP280;62942;52.462;10.846;2023-07-13T00:07:32;100560;;;
74485;BMP280;62942;52.462;10.846;2023-07-13T00:08:42;100560;;;
74485;BMP280;62942;52.462;10.846;2023-07-13T00:09:42;100550;;;
74485;BMP280;62942;52.462;10.846;2023-07-13T00:10:52;100550;;;
74485;BMP280;62942;52.462;10.846;2023-07-13T00:12:02;100550;;;
74485;BMP280;62942;52.462;10.846;2023-07-13T00:13:12;100560;;;
74485;BMP280;62942;52.462;10.846;2023-07-13T00:14:22;100560;;;
74485;BMP280;62942;52.462;10.846;2023-07-13T00:15:23;100560;;;
74485;BMP280;62942;52.462;10.846;2023-07-13T00:16:33;100560;;;
74485;BMP280;62942;52.462;10.846;2023-07-13T00:17:42;100560;;;
74485;BMP280;62942;52.462;10.846;2023-07-13T00:18:52;100560;;;
74485;BMP280;62942;52.462;10.846;2023-07-13T00:20:02;100550;;;
74485;BMP280;62942;52.462;10.846;2023-07-13T00:21:12;100560;;;
74485;BMP280;62942;52.462;10.846;2023-07-13T00:22:12;100560;;;
74485;BMP280;62942;52.462;10.846;2023-07-13T00:23:22;100560;;;
74485;BMP280;62942;52.462;10.846;2023-07-13T00:24:32;100560;;;
74485;BMP280;62942;52.462;10.846;2023-07-13T00:25:42;100570;;;
74485;BMP280;62942;52.462;10.846;2023-07-13T00:26:52;100570;;;
74485;BMP280;62942;52.462;10.846;2023-07-13T00:28:02;100570;;;
74485;BMP280;62942;52.462;10.846;2023-07-13T00:29:12;100570;;;
74485;BMP280;62942;52.462;10.846;2023-07-13T00:30:12;100570;;;
74485;BMP280;62942;52.462;10.846;2023-07-13T00:31:22;100570;;;
74485;BMP280;62942;52.462;10.846;2023-07-13T00:32:32;100570;;;
74485;BMP280;62942;52.462;10.846;2023-07-13T00:33:42;100570;;;
74485;BMP280;62942;52.462;10.846;2023-07-13T00:34:52;100570;;;
74485;BMP280;62942;52.462;10.846;2023-07-13T00:36:02;100570;;;
74485;BMP280;62942;52.462;10.846;2023-07-13T00:37:12;100570;;;
74485;BMP280;62942;52.462;10.846;2023-07-13T00:38:12;100580;;;
74485;BMP280;62942;52.462;10.846;2023-07-13T00:39:22;100570;;;
74485;BMP280;62942;52.462;10.846;2023-07-13T00:40:22;100570;;;
74485;BMP280;62942;52.462;10.846;2023-07-13T00:41:22;100570;;;
74485;BMP280;62942;52.462;10.846;2023-07-13T00:42:32;100570;;;
74485;BMP280;62942;52.462;10.846;2023-07-13T00:43:42;100570;;;
74485;BMP280;62942;52.462;10.846;2023-07-13T00:44:59;100570;;;
74485;BMP280;62942;52.462;10.846;2023-07-13T00:46:46;100570;;;
74485;BMP280;62942;52.462;10.846;2023-07-13T00:46:52;100580;;;
74485;BMP280;62942;52.462;10.846;2023-07-13T00:47:52;100580;;;
74485;BMP280;62942;52.462;10.846;2023-07-13T00:48:52;100580;;;
74485;BMP280;62942;52.462;10.846;2023-07-13T00:49:52;100580;;;
74485;BMP280;62942;52.462;10.846;2023-07-13T00:50:53;100580;;;
74485;BMP280;62942;52.462;10.846;2023-07-13T00:52:03;100580;;;
74485;BMP280;62942;52.462;10.846;2023-07-13T00:53:02;100580;;;
74485;BMP280;62942;52.462;10.846;2023-07-13T00:54:13;100570;;;
74485;BMP280;62942;52.462;10.846;2023-07-13T00:55:22;100570;;;
74485;BMP280;62942;52.462;10.846;2023-07-13T00:56:22;100580;;;
74485;BMP280;62942;52.462;10.846;2023-07-13T00:57:32;100580;;;
74485;BMP280;62942;52.462;10.846;2023-07-13T00:58:32;100580;;;
74485;BMP280;62942;52.462;10.846;2023-07-13T00:59:43;100580;;;
74485;BMP280;62942;52.462;10.846;2023-07-13T01:00:52;100580;;;
74485;BMP280;62942;52.462;10.846;2023-07-13T01:02:02;100580;;;
74485;BMP280;62942;52.462;10.846;2023-07-13T01:03:02;100580;;;
74485;BMP280;62942;52.462;10.846;2023-07-13T01:04:12;100590;;;
74485;BMP280;62942;52.462;10.846;2023-07-13T01:05:22;100590;;;
74485;BMP280;62942;52.462;10.846;2023-07-13T01:06:32;100580;;;
74485;BMP280;62942;52.462;10.846;2023-07-13T01:07:42;100580;;;
74485;BMP280;62942;52.462;10.846;2023-07-13T01:08:52;100580;;;
74485;BMP280;62942;52.462;10.846;2023-07-13T01:10:02;100580;;;
74485;BMP280;62942;52.462;10.846;2023-07-13T01:11:12;100580;;;
74485;BMP280;62942;52.462;10.846;2023-07-13T01:12:22;100580;;;
74485;BMP280;62942;52.462;10.846;2023-07-13T01:13:32;100580;;;
74485;BMP280;62942;52.462;10.846;2023-07-13T01:14:42;100580;;;
74485;BMP280;62942;52.462;10.846;2023-07-13T01:15:52;100590;;;
74485;BMP280;62942;52.462;10.846;2023-07-13T01:16:52;100590;;;
74485;BMP280;62942;52.462;10.846;2023-07-13T01:18:02;100590;;;
74485;BMP280;62942;52.462;10.846;2023-07-13T01:19:15;100590;;;
74485;BMP280;62942;52.462;10.846;2023-07-13T01:20:12;100590;;;
74485;BMP280;62942;52.462;10.846;2023-07-13T01:21:22;100590;;;
74485;BMP280;62942;52.462;10.846;2023-07-13T01:22:32;100580;;;
74485;BMP280;62942;52.462;10.846;2023-07-13T01:23:42;100590;;;
74485;BMP280;62942;52.462;10.846;2023-07-13T01:24:52;100580;;;
74485;BMP280;62942;52.462;10.846;2023-07-13T01:25:52;100580;;;
74485;BMP280;62942;52.462;10.846;2023-07-13T01:27:02;100600;;;
74485;BMP280;62942;52.462;10.846;2023-07-13T01:28:12;100590;;;
74485;BMP280;62942;52.462;10.846;2023-07-13T01:29:12;100590;;;
74485;BMP280;62942;52.462;10.846;2023-07-13T01:30:32;100600;;;
74485;BMP280;62942;52.462;10.846;2023-07-13T01:31:32;100590;;;
74485;BMP280;62942;52.462;10.846;2023-07-13T01:32:32;100590;;;
74485;BMP280;62942;52.462;10.846;2023-07-13T01:33:32;100590;;;
74485;BMP280;62942;52.462;10.846;2023-07-13T01:34:32;100590;;;
74485;BMP280;62942;52.462;10.846;2023-07-13T01:35:42;100590;;;
74485;BMP280;62942;52.462;10.846;2023-07-13T01:36:42;100590;;;
74485;BMP280;62942;52.462;10.846;2023-07-13T01:37:52;100580;;;
74485;BMP280;62942;52.462;10.846;2023-07-13T01:38:52;100580;;;
74485;BMP280;62942;52.462;10.846;2023-07-13T01:39:52;100590;;;
74485;BMP280;62942;52.462;10.846;2023-07-13T01:40:52;100590;;;
74485;BMP280;62942;52.462;10.846;2023-07-13T01:42:02;100580;;;
74485;BMP280;62942;52.462;10.846;2023-07-13T01:43:12;100580;;;
74485;BMP280;62942;52.462;10.846;2023-07-13T01:44:12;100580;;;
74485;BMP280;62942;52.462;10.846;2023-07-13T01:45:22;100580;;;
74485;BMP280;62942;52.462;10.846;2023-07-13T01:46:32;100580;;;
74485;BMP280;62942;52.462;10.846;2023-07-13T01:47:32;100580;;;
74485;BMP280;62942;52.462;10.846;2023-07-13T01:48:42;100580;;;
74485;BMP280;62942;52.462;10.846;2023-07-13T01:49:42;100570;;;
74485;BMP280;62942;52.462;10.846;2023-07-13T01:50:42;100580;;;
74485;BMP280;62942;52.462;10.846;2023-07-13T01:51:52;100580;;;
74485;BMP280;62942;52.462;10.846;2023-07-13T01:52:52;100580;;;
74485;BMP280;62942;52.462;10.846;2023-07-13T01:53:52;100580;;;
74485;BMP280;62942;52.462;10.846;2023-07-13T01:54:52;100580;;;
74485;BMP280;62942;52.462;10.846;2023-07-13T01:55:52;100580;;;
74485;BMP280;62942;52.462;10.846;2023-07-13T01:57:02;100590;;;
74485;BMP280;62942;52.462;10.846;2023-07-13T01:58:12;100580;;;
74485;BMP280;62942;52.462;10.846;2023-07-13T01:59:22;100580;;;
74485;BMP280;62942;52.462;10.846;2023-07-13T02:00:22;100580;;;
74485;BMP280;62942;52.462;10.846;2023-07-13T02:01:22;100580;;;
74485;BMP280;62942;52.462;10.846;2023-07-13T02:02:32;100580;;;
74485;BMP280;62942;52.462;10.846;2023-07-13T02:03:42;100580;;;
74485;BMP280;62942;52.462;10.846;2023-07-13T02:04:42;100570;;;
74485;BMP280;62942;52.462;10.846;2023-07-13T02:05:52;100570;;;
74485;BMP280;62942;52.462;10.846;2023-07-13T02:07:02;100570;;;
74485;BMP280;62942;52.462;10.846;2023-07-13T02:08:02;100580;;;
74485;BMP280;62942;52.462;10.846;2023-07-13T02:09:12;100570;;;
74485;BMP280;62942;52.462;10.846;2023-07-13T02:10:12;100570;;;
74485;BMP280;62942;52.462;10.846;2023-07-13T02:11:12;100580;;;
74485;BMP280;62942;52.462;10.846;2023-07-13T02:12:22;100570;;;
74485;BMP280;62942;52.462;10.846;2023-07-13T02:13:22;100580;;;
74485;BMP280;62942;52.462;10.846;2023-07-13T02:14:32;100570;;;
74485;BMP280;62942;52.462;10.846;2023-07-13T02:15:32;100580;;;
74485;BMP280;62942;52.462;10.846;2023-07-13T02:16:32;100580;;;
74485;BMP280;62942;52.462;10.846;2023-07-13T02:17:42;100580;;;
74485;BMP280;62942;52.462;10.846;2023-07-13T02:18:42;100580;;;
74485;BMP280;62942;52.462;10.846;2023-07-13T02:19:52;100590;;;
74485;BMP280;62942;52.462;10.846;2023-07-13T02:20:52;100590;;;
74485;BMP280;62942;52.462;10.846;2023-07-13T02:22:02;100590;;;
74485;BMP280;62942;52.462;10.846;2023-07-13T02:23:12;100590;;;
74485;BMP280;62942;52.462;10.846;2023-07-13T02:24:22;100590;;;
74485;BMP280;62942;52.462;10.846;2023-07-13T02:25:32;100600;;;
74485;BMP280;62942;52.462;10.846;2023-07-13T02:26:42;100590;;;
74485;BMP280;62942;52.462;10.846;2023-07-13T02:27:52;100590;;;
74485;BMP280;62942;52.462;10.846;2023-07-13T02:28:52;100590;;;
74485;BMP280;62942;52.462;10.846;2023-07-13T02:30:02;100600;;;
74485;BMP280;62942;52.462;10.846;2023-07-13T02:31:06;100600;;;
74485;BMP280;62942;52.462;10.846;2023-07-13T02:32:12;100600;;;
74485;BMP280;62942;52.462;10.846;2023-07-13T02:33:12;100600;;;
74485;BMP280;62942;52.462;10.846;2023-07-13T02:34:12;100600;;;
74485;BMP280;62942;52.462;10.846;2023-07-13T02:35:22;100600;;;
74485;BMP280;62942;52.462;10.846;2023-07-13T02:36:32;100610;;;
74485;BMP280;62942;52.462;10.846;2023-07-13T02:37:42;100600;;;
74485;BMP280;62942;52.462;10.846;2023-07-13T02:38:42;100600;;;
74485;BMP280;62942;52.462;10.846;2023-07-13T02:39:42;100610;;;
74485;BMP280;62942;52.462;10.846;2023-07-13T02:40:52;100610;;;
74485;BMP280;62942;52.462;10.846;2023-07-13T02:42:02;100600;;;
74485;BMP280;62942;52.462;10.846;2023-07-13T02:43:02;100610;;;
74485;BMP280;62942;52.462;10.846;2023-07-13T02:44:12;100600;;;
74485;BMP280;62942;52.462;10.846;2023-07-13T02:45:22;100600;;;
74485;BMP280;62942;52.462;10.846;2023-07-13T02:46:32;100600;;;
74485;BMP280;62942;52.462;10.846;2023-07-13T02:47:42;100600;;;
74485;BMP280;62942;52.462;10.846;2023-07-13T02:48:42;100600;;;
74485;BMP280;62942;52.462;10.846;2023-07-13T02:49:52;100600;;;
74485;BMP280;62942;52.462;10.846;2023-07-13T02:50:52;100600;;;
74485;BMP280;62942;52.462;10.846;2023-07-13T02:52:02;100600;;;
74485;BMP280;62942;52.462;10.846;2023-07-13T02:53:12;100600;;;
74485;BMP280;62942;52.462;10.846;2023-07-13T02:54:12;100600;;;
74485;BMP280;62942;52.462;10.846;2023-07-13T02:55:22;100590;;;
74485;BMP280;62942;52.462;10.846;2023-07-13T02:56:32;100590;;;
74485;BMP280;62942;52.462;10.846;2023-07-13T02:57:42;100590;;;
74485;BMP280;62942;52.462;10.846;2023-07-13T02:58:42;100590;;;
74485;BMP280;62942;52.462;10.846;2023-07-13T02:59:52;100590;;;
74485;BMP280;62942;52.462;10.846;2023-07-13T03:00:52;100600;;;
74485;BMP280;62942;52.462;10.846;2023-07-13T03:01:52;100590;;;
74485;BMP280;62942;52.462;10.846;2023-07-13T03:02:52;100590;;;
74485;BMP280;62942;52.462;10.846;2023-07-13T03:04:02;100580;;;
74485;BMP280;62942;52.462;10.846;2023-07-13T03:05:12;100580;;;
74485;BMP280;62942;52.462;10.846;2023-07-13T03:06:22;100580;;;
74485;BMP280;62942;52.462;10.846;2023-07-13T03:07:32;100580;;;
74485;BMP280;62942;52.462;10.846;2023-07-13T03:08:42;100580;;;
74485;BMP280;62942;52.462;10.846;2023-07-13T03:09:53;100590;;;
74485;BMP280;62942;52.462;10.846;2023-07-13T03:11:02;100590;;;
74485;BMP280;62942;52.462;10.846;2023-07-13T03:12:02;100580;;;
74485;BMP280;62942;52.462;10.846;2023-07-13T03:13:12;100570;;;
74485;BMP280;62942;52.462;10.846;2023-07-13T03:14:22;100570;;;
74485;BMP280;62942;52.462;10.846;2023-07-13T03:15:32;100570;;;
74485;BMP280;62942;52.462;10.846;2023-07-13T03:16:32;100570;;;
74485;BMP280;62942;52.462;10.846;2023-07-13T03:17:42;100570;;;
74485;BMP280;62942;52.462;10.846;2023-07-13T03:18:52;100570;;;
74485;BMP280;62942;52.462;10.846;2023-07-13T03:19:52;100560;;;
74485;BMP280;62942;52.462;10.846;2023-07-13T03:20:52;100560;;;
74485;BMP280;62942;52.462;10.846;2023-07-13T03:21:52;100560;;;
74485;BMP280;62942;52.462;10.846;2023-07-13T03:23:02;100560;;;
74485;BMP280;62942;52.462;10.846;2023-07-13T03:24:02;100550;;;
74485;BMP280;62942;52.462;10.846;2023-07-13T03:25:12;100560;;;
74485;BMP280;62942;52.462;10.846;2023-07-13T03:26:22;100560;;;
74485;BMP280;62942;52.462;10.846;2023-07-13T03:27:32;100560;;;
74485;BMP280;62942;52.462;10.846;2023-07-13T03:28:42;100560;;;
74485;BMP280;62942;52.462;10.846;2023-07-13T03:29:42;100560;;;
74485;BMP280;62942;52.462;10.846;2023-07-13T03:30:58;100560;;;
74485;BMP280;62942;52.462;10.846;2023-07-13T03:32:02;100560;;;
74485;BMP280;62942;52.462;10.846;2023-07-13T03:33:12;100560;;;
74485;BMP280;62942;52.462;10.846;2023-07-13T03:34:12;100570;;;
74485;BMP280;62942;52.462;10.846;2023-07-13T03:35:22;100570;;;
74485;BMP280;62942;52.462;10.846;2023-07-13T03:36:22;100570;;;
74485;BMP280;62942;52.462;10.846;2023-07-13T03:37:22;100570;;;
74485;BMP280;62942;52.462;10.846;2023-07-13T03:38:32;100570;;;
74485;BMP280;62942;52.462;10.846;2023-07-13T03:39:42;100570;;;
74485;BMP280;62942;52.462;10.846;2023-07-13T03:40:52;100580;;;
74485;BMP280;62942;52.462;10.846;2023-07-13T03:42:02;100580;;;
74485;BMP280;62942;52.462;10.846;2023-07-13T03:43:12;100580;;;
74485;BMP280;62942;52.462;10.846;2023-07-13T03:44:12;100590;;;
74485;BMP280;62942;52.462;10.846;2023-07-13T03:45:22;100580;;;
74485;BMP280;62942;52.462;10.846;2023-07-13T03:46:32;100590;;;
74485;BMP280;62942;52.462;10.846;2023-07-13T03:47:42;100580;;;
74485;BMP280;62942;52.462;10.846;2023-07-13T03:48:52;100580;;;
74485;BMP280;62942;52.462;10.846;2023-07-13T03:49:52;100590;;;
74485;BMP280;62942;52.462;10.846;2023-07-13T03:51:02;100590;;;
74485;BMP280;62942;52.462;10.846;2023-07-13T03:52:02;100590;;;
74485;BMP280;62942;52.462;10.846;2023-07-13T03:53:02;100590;;;
74485;BMP280;62942;52.462;10.846;2023-07-13T03:54:12;100590;;;
74485;BMP280;62942;52.462;10.846;2023-07-13T03:55:12;100580;;;
74485;BMP280;62942;52.462;10.846;2023-07-13T03:56:22;100590;;;
74485;BMP280;62942;52.462;10.846;2023-07-13T03:57:32;100600;;;
74485;BMP280;62942;52.462;10.846;2023-07-13T03:58:42;100590;;;
74485;BMP280;62942;52.462;10.846;2023-07-13T03:59:52;100600;;;
74485;BMP280;62942;52.462;10.846;2023-07-13T04:01:02;100610;;;
74485;BMP280;62942;52.462;10.846;2023-07-13T04:02:02;100610;;;
74485;BMP280;62942;52.462;10.846;2023-07-13T04:03:11;100610;;;
74485;BMP280;62942;52.462;10.846;2023-07-13T04:04:11;100610;;;
74485;BMP280;62942;52.462;10.846;2023-07-13T04:05:11;100600;;;
74485;BMP280;62942;52.462;10.846;2023-07-13T04:06:14;100600;;;
74485;BMP280;62942;52.462;10.846;2023-07-13T04:07:22;100610;;;
74485;BMP280;62942;52.462;10.846;2023-07-13T04:08:32;100610;;;
74485;BMP280;62942;52.462;10.846;2023-07-13T04:09:41;100610;;;
74485;BMP280;62942;52.462;10.846;2023-07-13T04:10:51;100610;;;
74485;BMP280;62942;52.462;10.846;2023-07-13T04:12:02;100600;;;
74485;BMP280;62942;52.462;10.846;2023-07-13T04:13:11;100610;;;
74485;BMP280;62942;52.462;10.846;2023-07-13T04:14:11;100620;;;
74485;BMP280;62942;52.462;10.846;2023-07-13T04:15:21;100610;;;
74485;BMP280;62942;52.462;10.846;2023-07-13T04:16:31;100620;;;
74485;BMP280;62942;52.462;10.846;2023-07-13T04:17:41;100620;;;
74485;BMP280;62942;52.462;10.846;2023-07-13T04:18:42;100620;;;
74485;BMP280;62942;52.462;10.846;2023-07-13T04:19:51;100620;;;
74485;BMP280;62942;52.462;10.846;2023-07-13T04:21:01;100630;;;
74485;BMP280;62942;52.462;10.846;2023-07-13T04:22:01;100630;;;
74485;BMP280;62942;52.462;10.846;2023-07-13T04:23:01;100630;;;
74485;BMP280;62942;52.462;10.846;2023-07-13T04:24:02;100630;;;
74485;BMP280;62942;52.462;10.846;2023-07-13T04:25:11;100630;;;
74485;BMP280;62942;52.462;10.846;2023-07-13T04:26:11;100630;;;
74485;BMP280;62942;52.462;10.846;2023-07-13T04:27:21;100630;;;
74485;BMP280;62942;52.462;10.846;2023-07-13T04:28:22;100630;;;
74485;BMP280;62942;52.462;10.846;2023-07-13T04:29:22;100630;;;
74485;BMP280;62942;52.462;10.846;2023-07-13T04:30:22;100620;;;
74485;BMP280;62942;52.462;10.846;2023-07-13T04:31:32;100630;;;
74485;BMP280;62942;52.462;10.846;2023-07-13T04:32:41;100620;;;
74485;BMP280;62942;52.462;10.846;2023-07-13T04:33:41;100620;;;
74485;BMP280;62942;52.462;10.846;2023-07-13T04:34:51;100620;;;
74485;BMP280;62942;52.462;10.846;2023-07-13T04:36:01;100620;;;
74485;BMP280;62942;52.462;10.846;2023-07-13T04:37:11;100620;;;
74485;BMP280;62942;52.462;10.846;2023-07-13T04:38:22;100620;;;
74485;BMP280;62942;52.462;10.846;2023-07-13T04:39:31;100620;;;
74485;BMP280;62942;52.462;10.846;2023-07-13T04:40:42;100620;;;
74485;BMP280;62942;52.462;10.846;2023-07-13T04:41:51;100620;;;
74485;BMP280;62942;52.462;10.846;2023-07-13T04:43:02;100610;;;
74485;BMP280;62942;52.462;10.846;2023-07-13T04:44:01;100610;;;
74485;BMP280;62942;52.462;10.846;2023-07-13T04:45:12;100610;;;
74485;BMP280;62942;52.462;10.846;2023-07-13T04:46:21;100630;;;
74485;BMP280;62942;52.462;10.846;2023-07-13T04:47:31;100620;;;
74485;BMP280;62942;52.462;10.846;2023-07-13T04:48:41;100620;;;
74485;BMP280;62942;52.462;10.846;2023-07-13T04:49:51;100630;;;
74485;BMP280;62942;52.462;10.846;2023-07-13T04:51:02;100630;;;
74485;BMP280;62942;52.462;10.846;2023-07-13T04:52:11;100630;;;
74485;BMP280;62942;52.462;10.846;2023-07-13T04:53:12;100630;;;
74485;BMP280;62942;52.462;10.846;2023-07-13T04:54:21;100630;;;
74485;BMP280;62942;52.462;10.846;2023-07-13T04:55:21;100630;;;
74485;BMP280;62942;52.462;10.846;2023-07-13T04:56:31;100640;;;
74485;BMP280;62942;52.462;10.846;2023-07-13T04:57:41;100640;;;
74485;BMP280;62942;52.462;10.846;2023-07-13T04:58:51;100640;;;
74485;BMP280;62942;52.462;10.846;2023-07-13T04:59:51;100630;;;
74485;BMP280;62942;52.462;10.846;2023-07-13T05:00:51;100640;;;
74485;BMP280;62942;52.462;10.846;2023-07-13T05:02:01;100640;;;
74485;BMP280;62942;52.462;10.846;2023-07-13T05:03:11;100640;;;
74485;BMP280;62942;52.462;10.846;2023-07-13T05:04:21;100640;;;
74485;BMP280;62942;52.462;10.846;2023-07-13T05:05:21;100640;;;
74485;BMP280;62942;52.462;10.846;2023-07-13T05:06:32;100640;;;
74485;BMP280;62942;52.462;10.846;2023-07-13T05:07:31;100640;;;
74485;BMP280;62942;52.462;10.846;2023-07-13T05:08:41;100650;;;
74485;BMP280;62942;52.462;10.846;2023-07-13T05:09:51;100650;;;
74485;BMP280;62942;52.462;10.846;2023-07-13T05:11:04;100650;;;
74485;BMP280;62942;52.462;10.846;2023-07-13T05:12:01;100650;;;
74485;BMP280;62942;52.462;10.846;2023-07-13T05:13:11;100660;;;
74485;BMP280;62942;52.462;10.846;2023-07-13T05:14:21;100650;;;
74485;BMP280;62942;52.462;10.846;2023-07-13T05:15:22;100650;;;
74485;BMP280;62942;52.462;10.846;2023-07-13T05:16:31;100650;;;
74485;BMP280;62942;52.462;10.846;2023-07-13T05:17:31;100650;;;
74485;BMP280;62942;52.462;10.846;2023-07-13T05:18:41;100660;;;
74485;BMP280;62942;52.462;10.846;2023-07-13T05:19:51;100660;;;
74485;BMP280;62942;52.462;10.846;2023-07-13T05:21:02;100660;;;
74485;BMP280;62942;52.462;10.846;2023-07-13T05:22:11;100660;;;
74485;BMP280;62942;52.462;10.846;2023-07-13T05:23:11;100660;;;
74485;BMP280;62942;52.462;10.846;2023-07-13T05:24:21;100660;;;
74485;BMP280;62942;52.462;10.846;2023-07-13T05:25:21;100660;;;
74485;BMP280;62942;52.462;10.846;2023-07-13T05:26:31;100660;;;
74485;BMP280;62942;52.462;10.846;2023-07-13T05:27:32;100660;;;
74485;BMP280;62942;52.462;10.846;2023-07-13T05:28:42;100670;;;
74485;BMP280;62942;52.462;10.846;2023-07-13T05:29:41;100660;;;
74485;BMP280;62942;52.462;10.846;2023-07-13T05:30:51;100660;;;
74485;BMP280;62942;52.462;10.846;2023-07-13T05:32:01;100670;;;
74485;BMP280;62942;52.462;10.846;2023-07-13T05:33:01;100670;;;
74485;BMP280;62942;52.462;10.846;2023-07-13T05:34:01;100660;;;
74485;BMP280;62942;52.462;10.846;2023-07-13T05:35:11;100670;;;
74485;BMP280;62942;52.462;10.846;2023-07-13T05:36:21;100670;;;
74485;BMP280;62942;52.462;10.846;2023-07-13T05:37:21;100670;;;
74485;BMP280;62942;52.462;10.846;2023-07-13T05:38:31;100670;;;
74485;BMP280;62942;52.462;10.846;2023-07-13T05:39:31;100660;;;
74485;BMP280;62942;52.462;10.846;2023-07-13T05:40:31;100670;;;
74485;BMP280;62942;52.462;10.846;2023-07-13T05:41:31;100660;;;
74485;BMP280;62942;52.462;10.846;2023-07-13T05:42:41;100660;;;
74485;BMP280;62942;52.462;10.846;2023-07-13T05:43:51;100670;;;
74485;BMP280;62942;52.462;10.846;2023-07-13T05:45:02;100670;;;
74485;BMP280;62942;52.462;10.846;2023-07-13T05:46:02;100670;;;
74485;BMP280;62942;52.462;10.846;2023-07-13T05:47:01;100670;;;
74485;BMP280;62942;52.462;10.846;2023-07-13T05:48:11;100660;;;
74485;BMP280;62942;52.462;10.846;2023-07-13T05:49:22;100660;;;
74485;BMP280;62942;52.462;10.846;2023-07-13T05:50:31;100660;;;
74485;BMP280;62942;52.462;10.846;2023-07-13T05:51:41;100660;;;
74485;BMP280;62942;52.462;10.846;2023-07-13T05:52:41;100670;;;
74485;BMP280;62942;52.462;10.846;2023-07-13T05:53:51;100670;;;
74485;BMP280;62942;52.462;10.846;2023-07-13T05:55:01;100670;;;
74485;BMP280;62942;52.462;10.846;2023-07-13T05:56:01;100680;;;
74485;BMP280;62942;52.462;10.846;2023-07-13T05:57:11;100680;;;
74485;BMP280;62942;52.462;10.846;2023-07-13T05:58:21;100680;;;
74485;BMP280;62942;52.462;10.846;2023-07-13T05:59:31;100680;;;
74485;BMP280;62942;52.462;10.846;2023-07-13T06:00:31;100680;;;
74485;BMP280;62942;52.462;10.846;2023-07-13T06:01:41;100680;;;
74485;BMP280;62942;52.462;10.846;2023-07-13T06:02:51;100680;;;
74485;BMP280;62942;52.462;10.846;2023-07-13T06:03:51;100690;;;
74485;BMP280;62942;52.462;10.846;2023-07-13T06:04:51;100680;;;
74485;BMP280;62942;52.462;10.846;2023-07-13T06:06:01;100680;;;
74485;BMP280;62942;52.462;10.846;2023-07-13T06:07:01;100680;;;
74485;BMP280;62942;52.462;10.846;2023-07-13T06:08:11;100680;;;
74485;BMP280;62942;52.462;10.846;2023-07-13T06:09:11;100680;;;
74485;BMP280;62942;52.462;10.846;2023-07-13T06:10:21;100680;;;
74485;BMP280;62942;52.462;10.846;2023-07-13T06:11:31;100680;;;
74485;BMP280;62942;52.462;10.846;2023-07-13T06:12:41;100670;;;
74485;BMP280;62942;52.462;10.846;2023-07-13T06:13:51;100680;;;
74485;BMP280;62942;52.462;10.846;2023-07-13T06:14:51;100680;;;
74485;BMP280;62942;52.462;10.846;2023-07-13T06:16:02;100680;;;
74485;BMP280;62942;52.462;10.846;2023-07-13T06:17:01;100680;;;
74485;BMP280;62942;52.462;10.846;2023-07-13T06:18:11;100680;;;
74485;BMP280;62942;52.462;10.846;2023-07-13T06:19:11;100670;;;
74485;BMP280;62942;52.462;10.846;2023-07-13T06:20:21;100670;;;
74485;BMP280;62942;52.462;10.846;2023-07-13T06:21:22;100670;;;
74485;BMP280;62942;52.462;10.846;2023-07-13T06:22:31;100670;;;
74485;BMP280;62942;52.462;10.846;2023-07-13T06:23:41;100680;;;
74485;BMP280;62942;52.462;10.846;2023-07-13T06:24:41;100680;;;
74485;BMP280;62942;52.462;10.846;2023-07-13T06:25:42;100680;;;
74485;BMP280;62942;52.462;10.846;2023-07-13T06:26:41;100680;;;
74485;BMP280;62942;52.462;10.846;2023-07-13T06:27:51;100680;;;
74485;BMP280;62942;52.462;10.846;2023-07-13T06:28:52;100680;;;
74485;BMP280;62942;52.462;10.846;2023-07-13T06:29:51;100680;;;
74485;BMP280;62942;52.462;10.846;2023-07-13T06:31:01;100680;;;
74485;BMP280;62942;52.462;10.846;2023-07-13T06:32:11;100680;;;
74485;BMP280;62942;52.462;10.846;2023-07-13T06:33:11;100680;;;
74485;BMP280;62942;52.462;10.846;2023-07-13T06:34:21;100680;;;
74485;BMP280;62942;52.462;10.846;2023-07-13T06:35:31;100690;;;
74485;BMP280;62942;52.462;10.846;2023-07-13T06:36:31;100690;;;
74485;BMP280;62942;52.462;10.846;2023-07-13T06:37:31;100680;;;
74485;BMP280;62942;52.462;10.846;2023-07-13T06:38:31;100680;;;
74485;BMP280;62942;52.462;10.846;2023-07-13T06:39:41;100680;;;
74485;BMP280;62942;52.462;10.846;2023-07-13T06:40:41;100690;;;
74485;BMP280;62942;52.462;10.846;2023-07-13T06:41:41;100680;;;
74485;BMP280;62942;52.462;10.846;2023-07-13T06:42:51;100690;;;
74485;BMP280;62942;52.462;10.846;2023-07-13T06:43:51;100690;;;
74485;BMP280;62942;52.462;10.846;2023-07-13T06:44:51;100680;;;
74485;BMP280;62942;52.462;10.846;2023-07-13T06:45:53;100690;;;
74485;BMP280;62942;52.462;10.846;2023-07-13T06:46:51;100670;;;
74485;BMP280;62942;52.462;10.846;2023-07-13T06:47:51;100670;;;
74485;BMP280;62942;52.462;10.846;2023-07-13T06:49:01;100690;;;
74485;BMP280;62942;52.462;10.846;2023-07-13T06:50:11;100680;;;
74485;BMP280;62942;52.462;10.846;2023-07-13T06:51:21;100690;;;
74485;BMP280;62942;52.462;10.846;2023-07-13T06:52:31;100690;;;
74485;BMP280;62942;52.462;10.846;2023-07-13T06:53:31;100690;;;
74485;BMP280;62942;52.462;10.846;2023-07-13T06:54:31;100690;;;
74485;BMP280;62942;52.462;10.846;2023-07-13T06:55:31;100690;;;
74485;BMP280;62942;52.462;10.846;2023-07-13T06:56:41;100690;;;
74485;BMP280;62942;52.462;10.846;2023-07-13T06:57:41;100680;;;